createdAt,value
2016-11-14T00:00:19.447Z,8
2016-11-14T00:01:36.006Z,8
2016-11-14T00:02:50.290Z,8
2016-11-14T00:04:04.186Z,8
2016-11-14T00:05:18.547Z,8
2016-11-14T00:06:32.614Z,8
2016-11-14T00:07:46.658Z,8
2016-11-14T00:09:01.187Z,8
2016-11-14T00:10:15.271Z,8
2016-11-14T00:11:29.622Z,7
2016-11-14T00:12:43.555Z,7
2016-11-14T00:13:57.750Z,7
2016-11-14T00:15:11.754Z,7
2016-11-14T00:16:26.601Z,8
2016-11-14T00:17:40.512Z,7
2016-11-14T00:19:09.262Z,7
2016-11-14T00:20:23.949Z,7
2016-11-14T00:21:38.325Z,7
2016-11-14T00:22:52.890Z,7
2016-11-14T00:24:06.865Z,7
2016-11-14T00:25:21.132Z,7
2016-11-14T00:26:35.156Z,7
2016-11-14T00:27:49.815Z,8
2016-11-14T00:29:04.505Z,8
2016-11-14T00:30:18.859Z,8
2016-11-14T00:31:33.370Z,8
2016-11-14T00:32:47.805Z,8
2016-11-14T00:34:01.782Z,8
2016-11-14T00:35:16.605Z,8
2016-11-14T00:36:30.453Z,8
2016-11-14T00:37:45.442Z,8
2016-11-14T00:38:59.160Z,8
2016-11-14T00:40:13.539Z,8
2016-11-14T00:41:28.186Z,8
2016-11-14T00:42:42.537Z,8
2016-11-14T00:43:56.494Z,8
2016-11-14T00:45:10.700Z,8
2016-11-14T00:46:24.868Z,8
2016-11-14T00:47:39.033Z,8
2016-11-14T00:48:53.249Z,8
2016-11-14T00:50:07.040Z,8
2016-11-14T00:51:21.748Z,8
2016-11-14T00:52:35.790Z,8
2016-11-14T00:53:49.746Z,8
2016-11-14T00:55:03.875Z,8
2016-11-14T00:56:17.680Z,8
2016-11-14T00:57:31.917Z,8
2016-11-14T00:58:45.823Z,8
2016-11-14T01:00:00.737Z,8
2016-11-14T01:01:14.944Z,8
2016-11-14T01:02:29.242Z,8
2016-11-14T01:03:43.011Z,8
2016-11-14T01:04:56.948Z,8
2016-11-14T01:06:10.928Z,8
2016-11-14T01:07:25.008Z,8
2016-11-14T01:08:40.468Z,8
2016-11-14T01:09:54.750Z,8
2016-11-14T01:11:09.506Z,8
2016-11-14T01:12:24.632Z,8
2016-11-14T01:13:39.129Z,8
2016-11-14T01:14:53.886Z,8
2016-11-14T01:16:08.089Z,8
2016-11-14T01:17:22.306Z,8
2016-11-14T01:18:38.595Z,8
2016-11-14T01:19:52.854Z,8
2016-11-14T01:21:06.822Z,8
2016-11-14T01:22:21.024Z,8
2016-11-14T01:23:35.046Z,8
2016-11-14T01:24:48.994Z,8
2016-11-14T01:26:03.287Z,8
2016-11-14T01:27:17.316Z,8
2016-11-14T01:28:31.373Z,7
2016-11-14T01:29:45.160Z,7
2016-11-14T01:30:58.931Z,7
2016-11-14T01:32:13.131Z,7
2016-11-14T01:33:27.335Z,7
2016-11-14T01:34:41.489Z,7
2016-11-14T01:35:55.996Z,7
2016-11-14T01:37:09.817Z,7
2016-11-14T01:38:23.750Z,7
2016-11-14T01:39:37.690Z,7
2016-11-14T01:40:51.859Z,7
2016-11-14T01:42:06.482Z,7
2016-11-14T01:43:20.729Z,7
2016-11-14T01:44:34.662Z,7
2016-11-14T01:45:48.559Z,7
2016-11-14T01:47:02.685Z,7
2016-11-14T01:48:16.614Z,7
2016-11-14T01:49:30.395Z,7
2016-11-14T01:50:44.543Z,7
2016-11-14T01:51:58.496Z,7
2016-11-14T01:53:12.601Z,7
2016-11-14T01:54:26.738Z,7
2016-11-14T01:55:40.815Z,7
2016-11-14T01:56:54.793Z,7
2016-11-14T01:58:08.826Z,7
2016-11-14T01:59:22.634Z,7
2016-11-14T02:00:36.499Z,7
2016-11-14T02:01:50.459Z,7
2016-11-14T02:03:04.194Z,7
2016-11-14T02:04:18.260Z,7
2016-11-14T02:05:32.019Z,7
2016-11-14T02:06:46.681Z,7
2016-11-14T02:08:00.441Z,7
2016-11-14T02:09:14.398Z,7
2016-11-14T02:10:28.920Z,7
2016-11-14T02:11:43.245Z,7
2016-11-14T02:12:57.362Z,7
2016-11-14T02:14:11.534Z,7
2016-11-14T02:15:25.537Z,7
2016-11-14T02:16:39.852Z,7
2016-11-14T02:17:53.796Z,7
2016-11-14T02:19:07.837Z,7
2016-11-14T02:20:21.940Z,7
2016-11-14T02:21:35.978Z,7
2016-11-14T02:22:50.000Z,7
2016-11-14T02:24:03.855Z,7
2016-11-14T02:25:18.366Z,7
2016-11-14T02:26:32.222Z,7
2016-11-14T02:27:46.361Z,7
2016-11-14T02:29:00.012Z,7
2016-11-14T02:30:13.804Z,7
2016-11-14T02:31:27.820Z,7
2016-11-14T02:32:41.694Z,7
2016-11-14T02:33:56.184Z,7
2016-11-14T02:35:12.387Z,7
2016-11-14T02:36:26.370Z,7
2016-11-14T02:37:40.644Z,7
2016-11-14T02:38:54.949Z,7
2016-11-14T02:40:09.219Z,7
2016-11-14T02:41:23.549Z,7
2016-11-14T02:42:37.836Z,7
2016-11-14T02:44:06.546Z,7
2016-11-14T02:45:35.487Z,7
2016-11-14T02:46:49.451Z,7
2016-11-14T02:48:04.045Z,7
2016-11-14T02:49:18.389Z,7
2016-11-14T02:50:32.677Z,7
2016-11-14T02:51:47.243Z,7
2016-11-14T02:53:01.260Z,7
2016-11-14T02:54:15.213Z,7
2016-11-14T02:55:29.345Z,7
2016-11-14T02:56:43.251Z,7
2016-11-14T02:57:57.569Z,7
2016-11-14T02:59:11.805Z,7
2016-11-14T03:00:26.300Z,7
2016-11-14T03:01:55.234Z,7
2016-11-14T03:03:09.626Z,7
2016-11-14T03:04:23.573Z,7
2016-11-14T03:05:37.644Z,7
2016-11-14T03:06:52.298Z,7
2016-11-14T03:08:06.287Z,7
2016-11-14T03:09:35.692Z,7
2016-11-14T03:10:49.679Z,7
2016-11-14T03:12:03.991Z,7
2016-11-14T03:13:18.263Z,7
2016-11-14T03:14:32.712Z,7
2016-11-14T03:15:47.118Z,7
2016-11-14T03:17:01.553Z,7
2016-11-14T03:18:15.607Z,7
2016-11-14T03:19:29.912Z,7
2016-11-14T03:20:44.217Z,7
2016-11-14T03:21:58.506Z,7
2016-11-14T03:23:12.558Z,7
2016-11-14T03:24:26.745Z,7
2016-11-14T03:25:41.010Z,7
2016-11-14T03:26:55.565Z,7
2016-11-14T03:28:10.329Z,7
2016-11-14T03:29:24.729Z,7
2016-11-14T03:30:38.652Z,7
2016-11-14T03:31:52.625Z,7
2016-11-14T03:33:06.566Z,7
2016-11-14T03:34:20.921Z,7
2016-11-14T03:35:34.946Z,7
2016-11-14T03:36:48.917Z,7
2016-11-14T03:38:02.860Z,7
2016-11-14T03:39:17.203Z,7
2016-11-14T03:40:31.489Z,7
2016-11-14T03:41:45.539Z,7
2016-11-14T03:44:28.393Z,7
2016-11-14T03:45:42.683Z,7
2016-11-14T03:46:56.662Z,7
2016-11-14T03:48:10.656Z,7
2016-11-14T03:49:25.050Z,7
2016-11-14T03:50:39.187Z,7
2016-11-14T03:51:53.415Z,7
2016-11-14T03:53:09.982Z,7
2016-11-14T03:54:24.057Z,7
2016-11-14T03:55:38.151Z,7
2016-11-14T03:56:52.127Z,7
2016-11-14T03:58:06.345Z,7
2016-11-14T03:59:20.330Z,7
2016-11-14T04:00:34.597Z,7
2016-11-14T04:01:48.477Z,7
2016-11-14T04:03:02.783Z,6
2016-11-14T04:04:17.360Z,6
2016-11-14T04:05:31.370Z,6
2016-11-14T04:06:45.632Z,6
2016-11-14T04:07:59.627Z,6
2016-11-14T04:09:13.549Z,6
2016-11-14T04:10:27.817Z,6
2016-11-14T04:11:41.854Z,6
2016-11-14T04:12:56.029Z,6
2016-11-14T04:14:09.976Z,6
2016-11-14T04:15:23.950Z,7
2016-11-14T04:16:38.531Z,7
2016-11-14T04:17:52.469Z,7
2016-11-14T04:19:06.828Z,7
2016-11-14T04:20:20.810Z,7
2016-11-14T04:21:35.093Z,7
2016-11-14T04:22:49.322Z,7
2016-11-14T04:24:03.242Z,7
2016-11-14T04:25:17.532Z,7
2016-11-14T04:26:32.064Z,7
2016-11-14T04:27:46.110Z,7
2016-11-14T04:29:00.077Z,7
2016-11-14T04:30:14.010Z,7
2016-11-14T04:31:30.545Z,7
2016-11-14T04:32:44.470Z,7
2016-11-14T04:33:58.430Z,7
2016-11-14T04:35:13.261Z,7
2016-11-14T04:36:28.115Z,7
2016-11-14T04:37:42.436Z,7
2016-11-14T04:38:56.464Z,7
2016-11-14T04:40:10.452Z,7
2016-11-14T04:42:54.741Z,7
2016-11-14T04:44:08.918Z,7
2016-11-14T04:45:22.911Z,7
2016-11-14T04:46:37.309Z,7
2016-11-14T04:47:51.589Z,7
2016-11-14T04:49:05.573Z,7
2016-11-14T04:50:19.657Z,7
2016-11-14T04:51:33.671Z,7
2016-11-14T04:52:47.720Z,7
2016-11-14T04:54:02.016Z,7
2016-11-14T04:55:16.359Z,7
2016-11-14T04:56:30.362Z,7
2016-11-14T04:57:44.345Z,7
2016-11-14T04:59:13.231Z,7
2016-11-14T05:00:27.719Z,7
2016-11-14T05:01:43.480Z,7
2016-11-14T05:02:58.425Z,7
2016-11-14T05:04:12.547Z,7
2016-11-14T05:05:26.516Z,7
2016-11-14T05:06:41.467Z,7
2016-11-14T05:07:55.621Z,7
2016-11-14T05:09:09.615Z,7
2016-11-14T05:10:25.848Z,7
2016-11-14T05:11:39.980Z,7
2016-11-14T05:12:54.211Z,7
2016-11-14T05:14:08.221Z,7
2016-11-14T05:15:22.230Z,7
2016-11-14T05:16:36.275Z,7
2016-11-14T05:17:50.203Z,7
2016-11-14T05:19:04.546Z,7
2016-11-14T05:20:18.852Z,7
2016-11-14T05:21:32.829Z,7
2016-11-14T05:22:47.136Z,7
2016-11-14T05:24:01.233Z,7
2016-11-14T05:25:15.258Z,7
2016-11-14T05:26:29.279Z,7
2016-11-14T05:27:43.329Z,7
2016-11-14T05:28:57.618Z,7
2016-11-14T05:30:11.865Z,7
2016-11-14T05:31:27.404Z,7
2016-11-14T05:32:43.673Z,7
2016-11-14T05:33:57.683Z,7
2016-11-14T05:35:12.067Z,8
2016-11-14T05:36:26.527Z,8
2016-11-14T05:37:41.173Z,8
2016-11-14T05:38:55.310Z,8
2016-11-14T05:40:09.726Z,8
2016-11-14T05:41:24.524Z,8
2016-11-14T05:42:38.223Z,8
2016-11-14T05:43:52.845Z,8
2016-11-14T05:45:21.566Z,8
2016-11-14T05:46:35.864Z,8
2016-11-14T05:47:49.907Z,8
2016-11-14T05:49:04.987Z,8
2016-11-14T05:50:18.944Z,8
2016-11-14T05:53:18.405Z,8
2016-11-14T05:54:32.694Z,8
2016-11-14T05:55:46.855Z,8
2016-11-14T05:57:01.367Z,8
2016-11-14T05:58:16.128Z,8
2016-11-14T05:59:30.606Z,8
2016-11-14T06:00:59.468Z,8
2016-11-14T06:02:28.299Z,8
2016-11-14T06:03:42.136Z,8
2016-11-14T06:04:56.033Z,7
2016-11-14T06:06:09.992Z,7
2016-11-14T06:07:23.992Z,7
2016-11-14T06:08:38.168Z,7
2016-11-14T06:09:52.070Z,7
2016-11-14T06:11:05.917Z,7
2016-11-14T06:12:19.892Z,7
2016-11-14T06:13:34.068Z,7
2016-11-14T06:14:48.310Z,7
2016-11-14T06:16:03.050Z,7
2016-11-14T06:17:16.961Z,7
2016-11-14T06:18:31.070Z,7
2016-11-14T06:19:45.017Z,7
2016-11-14T06:20:59.367Z,7
2016-11-14T06:22:13.319Z,7
2016-11-14T06:23:27.269Z,7
2016-11-14T06:24:40.866Z,7
2016-11-14T06:25:54.888Z,7
2016-11-14T06:27:08.642Z,7
2016-11-14T06:28:24.967Z,7
2016-11-14T06:29:39.023Z,7
2016-11-14T06:30:52.806Z,7
2016-11-14T06:32:07.142Z,7
2016-11-14T06:33:21.173Z,7
2016-11-14T06:34:34.855Z,7
2016-11-14T06:35:49.294Z,7
2016-11-14T06:37:03.300Z,7
2016-11-14T06:38:17.752Z,7
2016-11-14T06:39:31.526Z,7
2016-11-14T06:40:45.260Z,7
2016-11-14T06:41:58.999Z,7
2016-11-14T06:43:13.124Z,7
2016-11-14T06:44:27.031Z,7
2016-11-14T06:45:40.874Z,7
2016-11-14T06:46:55.187Z,7
2016-11-14T06:48:09.573Z,7
2016-11-14T06:49:23.820Z,7
2016-11-14T06:50:37.717Z,7
2016-11-14T06:51:52.075Z,7
2016-11-14T06:53:06.403Z,7
2016-11-14T06:54:21.008Z,7
2016-11-14T06:55:34.935Z,7
2016-11-14T06:56:48.954Z,7
2016-11-14T06:58:03.051Z,7
2016-11-14T06:59:17.549Z,7
2016-11-14T07:03:29.105Z,7
2016-11-14T07:04:43.059Z,7
2016-11-14T07:05:57.015Z,7
2016-11-14T07:07:11.209Z,7
2016-11-14T07:08:25.415Z,7
2016-11-14T07:09:39.245Z,7
2016-11-14T07:10:53.091Z,7
2016-11-14T07:12:07.763Z,7
2016-11-14T07:13:21.600Z,7
2016-11-14T07:14:36.574Z,7
2016-11-14T07:15:50.502Z,7
2016-11-14T07:17:04.400Z,7
2016-11-14T07:18:18.434Z,7
2016-11-14T07:19:32.771Z,7
2016-11-14T07:20:47.001Z,7
2016-11-14T07:22:00.917Z,7
2016-11-14T07:23:14.908Z,7
2016-11-14T07:24:29.002Z,7
2016-11-14T07:25:42.799Z,7
2016-11-14T07:26:57.654Z,7
2016-11-14T07:28:11.577Z,8
2016-11-14T07:29:25.475Z,8
2016-11-14T07:30:39.578Z,8
2016-11-14T07:31:53.612Z,8
2016-11-14T07:33:07.921Z,8
2016-11-14T07:34:22.199Z,8
2016-11-14T07:35:36.423Z,8
2016-11-14T07:36:50.261Z,8
2016-11-14T07:38:03.951Z,8
2016-11-14T07:39:18.250Z,8
2016-11-14T07:40:34.068Z,8
2016-11-14T07:41:47.815Z,8
2016-11-14T07:43:01.770Z,8
2016-11-14T07:44:15.759Z,8
2016-11-14T07:45:30.208Z,8
2016-11-14T07:46:46.565Z,8
2016-11-14T07:48:00.676Z,8
2016-11-14T07:49:15.017Z,8
2016-11-14T07:50:29.035Z,8
2016-11-14T07:51:43.546Z,8
2016-11-14T07:52:57.774Z,8
2016-11-14T07:54:11.689Z,8
2016-11-14T07:55:26.491Z,8
2016-11-14T07:56:40.354Z,8
2016-11-14T07:57:54.012Z,8
2016-11-14T07:59:08.339Z,8
2016-11-14T08:00:22.263Z,8
2016-11-14T08:01:36.019Z,8
2016-11-14T08:02:49.696Z,8
2016-11-14T08:04:03.493Z,8
2016-11-14T08:05:17.738Z,8
2016-11-14T08:06:31.696Z,8
2016-11-14T08:07:45.509Z,8
2016-11-14T08:08:59.453Z,8
2016-11-14T08:10:28.276Z,9
2016-11-14T08:11:42.594Z,9
2016-11-14T08:12:56.567Z,9
2016-11-14T08:14:10.432Z,9
2016-11-14T08:15:24.614Z,9
2016-11-14T08:16:39.808Z,9
2016-11-14T08:18:52.792Z,9
2016-11-14T08:20:06.941Z,9
2016-11-14T08:21:20.868Z,9
2016-11-14T08:22:34.885Z,9
2016-11-14T08:23:48.998Z,9
2016-11-14T08:29:14.269Z,9
2016-11-14T08:30:28.949Z,9
2016-11-14T08:31:42.929Z,9
2016-11-14T08:32:56.754Z,9
2016-11-14T08:34:10.992Z,9
2016-11-14T08:35:24.939Z,9
2016-11-14T08:36:53.917Z,9
2016-11-14T08:38:52.279Z,9
2016-11-14T08:40:20.953Z,9
2016-11-14T08:41:35.156Z,9
2016-11-14T08:42:49.475Z,9
2016-11-14T08:44:03.792Z,9
2016-11-14T08:45:17.641Z,9
2016-11-14T08:46:32.223Z,9
2016-11-14T08:47:45.899Z,9
2016-11-14T08:49:00.381Z,9
2016-11-14T08:50:15.089Z,9
2016-11-14T08:51:29.145Z,9
2016-11-14T08:52:43.357Z,9
2016-11-14T08:53:57.042Z,9
2016-11-14T08:55:26.789Z,9
2016-11-14T08:56:40.744Z,9
2016-11-14T08:57:54.816Z,9
2016-11-14T08:59:08.542Z,9
2016-11-14T09:00:23.100Z,9
2016-11-14T09:01:37.119Z,9
2016-11-14T09:07:16.887Z,9
2016-11-14T09:08:31.310Z,10
2016-11-14T09:09:45.119Z,10
2016-11-14T09:10:59.426Z,10
2016-11-14T09:12:15.978Z,10
2016-11-14T09:13:30.246Z,10
2016-11-14T09:14:44.972Z,10
2016-11-14T09:15:59.087Z,10
2016-11-14T09:17:13.753Z,10
2016-11-14T09:18:27.537Z,10
2016-11-14T09:19:41.265Z,10
2016-11-14T09:20:56.877Z,10
2016-11-14T09:22:10.652Z,10
2016-11-14T09:23:24.517Z,10
2016-11-14T09:24:38.730Z,10
2016-11-14T09:25:53.345Z,10
2016-11-14T09:27:07.324Z,10
2016-11-14T09:28:21.264Z,10
2016-11-14T09:29:35.279Z,10
2016-11-14T09:30:49.941Z,10
2016-11-14T09:32:04.025Z,10
2016-11-14T09:33:18.396Z,10
2016-11-14T09:34:32.076Z,10
2016-11-14T09:35:46.160Z,10
2016-11-14T09:36:59.909Z,10
2016-11-14T09:38:14.019Z,11
2016-11-14T09:39:28.270Z,11
2016-11-14T09:40:42.255Z,11
2016-11-14T09:41:55.973Z,11
2016-11-14T09:43:09.562Z,11
2016-11-14T09:44:23.608Z,11
2016-11-14T09:45:37.753Z,11
2016-11-14T09:46:51.773Z,11
2016-11-14T09:48:05.467Z,11
2016-11-14T09:49:19.355Z,11
2016-11-14T09:50:33.315Z,11
2016-11-14T09:51:47.608Z,11
2016-11-14T09:53:01.553Z,11
2016-11-14T09:54:15.615Z,11
2016-11-14T09:55:30.103Z,11
2016-11-14T09:56:43.933Z,11
2016-11-14T09:57:57.990Z,11
2016-11-14T09:59:12.102Z,11
2016-11-14T10:00:25.972Z,11
2016-11-14T10:01:39.815Z,11
2016-11-14T10:02:53.649Z,11
2016-11-14T10:04:08.280Z,11
2016-11-14T10:05:22.741Z,11
2016-11-14T10:06:36.733Z,11
2016-11-14T10:08:49.970Z,11
2016-11-14T10:10:04.036Z,11
2016-11-14T10:11:17.825Z,11
2016-11-14T10:12:31.579Z,11
2016-11-14T10:13:45.385Z,11
2016-11-14T10:14:59.684Z,11
2016-11-14T10:16:13.432Z,11
2016-11-14T10:17:27.758Z,11
2016-11-14T10:18:41.604Z,11
2016-11-14T10:19:55.509Z,11
2016-11-14T10:21:09.431Z,11
2016-11-14T10:22:23.140Z,11
2016-11-14T10:23:37.324Z,11
2016-11-14T10:24:51.120Z,11
2016-11-14T10:26:04.876Z,11
2016-11-14T10:27:18.795Z,12
2016-11-14T10:28:32.880Z,12
2016-11-14T10:29:49.155Z,12
2016-11-14T10:31:03.370Z,12
2016-11-14T10:32:17.331Z,12
2016-11-14T10:33:31.455Z,12
2016-11-14T10:34:45.421Z,12
2016-11-14T10:36:14.503Z,12
2016-11-14T10:37:28.402Z,12
2016-11-14T10:38:42.537Z,12
2016-11-14T10:40:25.914Z,12
2016-11-14T10:41:39.593Z,12
2016-11-14T10:42:53.335Z,12
2016-11-14T10:44:06.915Z,12
2016-11-14T10:45:20.870Z,12
2016-11-14T10:46:35.097Z,12
2016-11-14T10:47:49.166Z,12
2016-11-14T10:49:03.261Z,12
2016-11-14T10:50:17.299Z,12
2016-11-14T10:51:31.499Z,12
2016-11-14T10:52:45.196Z,12
2016-11-14T10:53:59.653Z,12
2016-11-14T11:01:37.565Z,12
2016-11-14T11:03:06.560Z,12
2016-11-14T11:04:20.370Z,12
2016-11-14T11:05:34.681Z,12
2016-11-14T11:06:48.406Z,12
2016-11-14T11:08:02.529Z,12
2016-11-14T11:09:16.889Z,12
2016-11-14T11:10:30.854Z,12
2016-11-14T11:11:44.711Z,12
2016-11-14T11:12:59.363Z,12
2016-11-14T11:14:13.236Z,12
2016-11-14T11:15:27.678Z,12
2016-11-14T11:16:41.413Z,12
2016-11-14T11:17:55.381Z,12
2016-11-14T11:19:09.273Z,12
2016-11-14T11:20:22.961Z,12
2016-11-14T11:21:36.940Z,12
2016-11-14T11:22:51.609Z,12
2016-11-14T11:24:05.978Z,12
2016-11-14T11:25:19.962Z,12
2016-11-14T11:26:33.758Z,12
2016-11-14T11:27:47.602Z,12
2016-11-14T11:29:01.403Z,12
2016-11-14T11:30:15.214Z,12
2016-11-14T11:31:28.897Z,12
2016-11-14T11:32:42.652Z,12
2016-11-14T11:33:56.642Z,12
2016-11-14T11:35:11.500Z,12
2016-11-14T11:36:25.408Z,12
2016-11-14T11:37:39.298Z,12
2016-11-14T11:38:53.211Z,12
2016-11-14T11:40:07.033Z,12
2016-11-14T11:41:21.369Z,12
2016-11-14T11:42:35.270Z,12
2016-11-14T11:43:49.560Z,12
2016-11-14T11:45:03.405Z,12
2016-11-14T11:46:17.016Z,12
2016-11-14T11:47:31.143Z,12
2016-11-14T11:48:44.968Z,13
2016-11-14T11:49:59.136Z,13
2016-11-14T11:51:15.104Z,13
2016-11-14T11:52:29.249Z,13
2016-11-14T11:53:43.494Z,13
2016-11-14T11:54:58.153Z,13
2016-11-14T11:56:12.124Z,13
2016-11-14T11:57:25.722Z,13
2016-11-14T11:58:39.403Z,13
2016-11-14T11:59:53.232Z,13
2016-11-14T12:01:07.265Z,13
2016-11-14T12:02:21.093Z,13
2016-11-14T12:03:34.774Z,13
2016-11-14T12:04:48.578Z,13
2016-11-14T12:06:02.580Z,13
2016-11-14T12:07:17.016Z,13
2016-11-14T12:08:31.169Z,13
2016-11-14T12:09:44.724Z,13
2016-11-14T12:10:59.025Z,13
2016-11-14T12:12:12.708Z,13
2016-11-14T12:13:27.202Z,13
2016-11-14T12:14:41.459Z,13
2016-11-14T12:16:10.087Z,13
2016-11-14T12:17:23.934Z,13
2016-11-14T12:18:37.552Z,13
2016-11-14T12:19:51.287Z,13
2016-11-14T12:21:04.926Z,13
2016-11-14T12:22:18.570Z,13
2016-11-14T12:23:32.586Z,13
2016-11-14T12:24:46.404Z,13
2016-11-14T12:26:00.586Z,13
2016-11-14T12:27:14.449Z,13
2016-11-14T12:28:28.384Z,13
2016-11-14T12:29:42.328Z,13
2016-11-14T12:30:56.160Z,13
2016-11-14T12:32:09.935Z,13
2016-11-14T12:33:24.304Z,13
2016-11-14T12:34:38.030Z,13
2016-11-14T12:36:21.746Z,13
2016-11-14T12:37:36.106Z,13
2016-11-14T12:38:49.733Z,13
2016-11-14T12:40:03.997Z,13
2016-11-14T12:41:17.844Z,13
2016-11-14T12:42:31.474Z,13
2016-11-14T12:43:45.201Z,13
2016-11-14T12:44:58.896Z,13
2016-11-14T12:46:13.061Z,13
2016-11-14T12:47:27.184Z,13
2016-11-14T12:48:40.825Z,13
2016-11-14T12:49:54.444Z,13
2016-11-14T12:51:08.118Z,13
2016-11-14T12:52:21.975Z,13
2016-11-14T12:53:36.402Z,13
2016-11-14T12:54:50.163Z,13
2016-11-14T12:56:18.851Z,13
2016-11-14T12:57:32.674Z,14
2016-11-14T12:59:31.085Z,13
2016-11-14T13:01:44.147Z,14
2016-11-14T13:02:58.229Z,14
2016-11-14T13:04:13.287Z,14
2016-11-14T13:05:27.202Z,14
2016-11-14T13:07:10.710Z,13
2016-11-14T13:08:24.642Z,14
2016-11-14T13:12:52.918Z,14
2016-11-14T13:14:06.559Z,14
2016-11-14T13:15:35.124Z,14
2016-11-14T13:16:49.329Z,14
2016-11-14T13:18:04.111Z,14
2016-11-14T13:19:17.707Z,14
2016-11-14T13:20:31.456Z,14
2016-11-14T13:21:45.304Z,14
2016-11-14T13:22:59.463Z,14
2016-11-14T13:24:13.223Z,14
2016-11-14T13:25:27.576Z,14
2016-11-14T13:26:41.577Z,14
2016-11-14T13:27:55.697Z,14
2016-11-14T13:29:09.423Z,14
2016-11-14T13:30:23.062Z,14
2016-11-14T13:31:37.387Z,14
2016-11-14T13:32:51.356Z,14
2016-11-14T13:34:05.624Z,14
2016-11-14T13:35:19.776Z,14
2016-11-14T13:36:33.531Z,14
2016-11-14T13:37:47.452Z,14
2016-11-14T13:39:01.842Z,14
2016-11-14T13:40:15.481Z,14
2016-11-14T13:41:29.049Z,14
2016-11-14T13:42:42.633Z,14
2016-11-14T13:43:56.684Z,14
2016-11-14T13:45:10.697Z,14
2016-11-14T13:46:24.320Z,14
2016-11-14T13:47:38.102Z,14
2016-11-14T13:48:51.803Z,14
2016-11-14T13:50:05.477Z,14
2016-11-14T13:51:19.996Z,14
2016-11-14T13:52:48.683Z,14
2016-11-14T13:56:59.847Z,14
2016-11-14T13:58:14.747Z,14
2016-11-14T13:59:28.736Z,14
2016-11-14T14:00:42.373Z,14
2016-11-14T14:01:56.209Z,14
2016-11-14T14:03:10.057Z,14
2016-11-14T14:04:24.485Z,14
2016-11-14T14:05:38.377Z,14
2016-11-14T14:06:52.106Z,14
2016-11-14T14:08:05.876Z,14
2016-11-14T14:09:19.891Z,14
2016-11-14T14:10:34.385Z,14
2016-11-14T14:11:48.591Z,14
2016-11-14T14:13:02.178Z,14
2016-11-14T14:14:31.046Z,14
2016-11-14T14:15:44.660Z,14
2016-11-14T14:16:58.240Z,14
2016-11-14T14:18:11.986Z,14
2016-11-14T14:19:26.305Z,14
2016-11-14T14:20:40.001Z,14
2016-11-14T14:21:54.160Z,14
2016-11-14T14:23:07.893Z,14
2016-11-14T14:24:21.753Z,14
2016-11-14T14:25:35.586Z,14
2016-11-14T14:26:49.319Z,14
2016-11-14T14:28:03.128Z,14
2016-11-14T14:29:16.801Z,14
2016-11-14T14:30:30.422Z,14
2016-11-14T14:31:46.693Z,14
2016-11-14T14:33:00.799Z,14
2016-11-14T14:34:14.605Z,14
2016-11-14T14:35:28.337Z,14
2016-11-14T14:36:42.021Z,14
2016-11-14T14:37:56.170Z,14
2016-11-14T14:39:10.462Z,14
2016-11-14T14:40:24.917Z,14
2016-11-14T14:41:39.469Z,14
2016-11-14T14:42:53.419Z,14
2016-11-14T14:44:07.100Z,14
2016-11-14T14:45:51.115Z,14
2016-11-14T14:47:04.990Z,14
2016-11-14T14:48:18.749Z,14
2016-11-14T14:49:32.429Z,14
2016-11-14T14:51:01.300Z,14
2016-11-14T14:52:15.940Z,14
2016-11-14T14:53:30.360Z,14
2016-11-14T14:54:44.561Z,14
2016-11-14T14:55:58.572Z,14
2016-11-14T14:57:12.780Z,14
2016-11-14T14:58:26.818Z,14
2016-11-14T14:59:40.902Z,14
2016-11-14T15:00:54.950Z,14
2016-11-14T15:02:08.835Z,14
2016-11-14T15:03:22.537Z,13
2016-11-14T15:04:36.763Z,13
2016-11-14T15:05:51.917Z,13
2016-11-14T15:07:06.805Z,13
2016-11-14T15:08:20.636Z,13
2016-11-14T15:09:35.103Z,13
2016-11-14T15:10:49.380Z,13
2016-11-14T15:12:04.378Z,13
2016-11-14T15:13:18.900Z,13
2016-11-14T15:14:32.842Z,13
2016-11-14T15:15:47.112Z,13
2016-11-14T15:17:01.879Z,13
2016-11-14T15:18:15.611Z,13
2016-11-14T15:19:29.400Z,13
2016-11-14T15:20:43.452Z,13
2016-11-14T15:21:57.232Z,13
2016-11-14T15:23:11.067Z,13
2016-11-14T15:24:26.461Z,13
2016-11-14T15:25:40.313Z,13
2016-11-14T15:26:54.331Z,13
2016-11-14T15:28:08.095Z,13
2016-11-14T15:29:22.028Z,13
2016-11-14T15:30:36.018Z,13
2016-11-14T15:31:49.903Z,13
2016-11-14T15:33:03.676Z,13
2016-11-14T15:34:17.843Z,13
2016-11-14T15:35:46.544Z,13
2016-11-14T15:37:00.251Z,13
2016-11-14T15:38:13.839Z,13
2016-11-14T15:39:27.540Z,13
2016-11-14T15:40:41.919Z,13
2016-11-14T15:42:10.729Z,13
2016-11-14T15:43:25.274Z,13
2016-11-14T15:44:39.751Z,12
2016-11-14T15:45:54.108Z,12
2016-11-14T15:47:08.007Z,12
2016-11-14T15:48:21.936Z,12
2016-11-14T15:49:38.085Z,13
2016-11-14T15:50:51.722Z,12
2016-11-14T15:52:05.827Z,12
2016-11-14T15:53:19.463Z,12
2016-11-14T15:54:33.078Z,12
2016-11-14T15:55:47.401Z,12
2016-11-14T15:57:01.224Z,12
2016-11-14T15:58:15.084Z,12
2016-11-14T15:59:29.038Z,12
2016-11-14T16:00:42.965Z,12
2016-11-14T16:01:57.114Z,12
2016-11-14T16:03:11.295Z,12
2016-11-14T16:04:25.512Z,12
2016-11-14T16:05:40.126Z,12
2016-11-14T16:06:53.939Z,12
2016-11-14T16:08:07.724Z,12
2016-11-14T16:10:24.899Z,12
2016-11-14T16:11:47.421Z,12
2016-11-14T16:13:02.288Z,12
2016-11-14T16:14:17.147Z,12
2016-11-14T16:17:00.637Z,12
2016-11-14T16:18:16.348Z,12
2016-11-14T16:19:30.103Z,12
2016-11-14T16:20:44.168Z,12
2016-11-14T16:21:58.219Z,12
2016-11-14T16:23:12.312Z,12
2016-11-14T16:24:26.215Z,12
2016-11-14T16:25:40.171Z,12
2016-11-14T16:26:53.740Z,12
2016-11-14T16:28:07.249Z,12
2016-11-14T16:29:21.617Z,12
2016-11-14T16:30:36.420Z,12
2016-11-14T16:31:53.100Z,12
2016-11-14T16:33:07.290Z,12
2016-11-14T16:34:21.630Z,12
2016-11-14T16:35:35.264Z,11
2016-11-14T16:36:49.299Z,11
2016-11-14T16:38:18.031Z,11
2016-11-14T16:39:32.228Z,11
2016-11-14T16:40:56.470Z,11
2016-11-14T16:42:21.890Z,11
2016-11-14T16:43:48.309Z,11
2016-11-14T16:45:11.409Z,11
2016-11-14T16:46:39.459Z,11
2016-11-14T16:48:11.873Z,11
2016-11-14T16:49:25.921Z,11
2016-11-14T16:50:40.426Z,11
2016-11-14T16:51:54.469Z,11
2016-11-14T16:53:08.987Z,11
2016-11-14T16:54:22.997Z,11
2016-11-14T16:55:36.886Z,11
2016-11-14T16:56:50.983Z,11
2016-11-14T16:58:04.922Z,11
2016-11-14T16:59:18.677Z,11
2016-11-14T17:00:32.660Z,11
2016-11-14T17:01:46.416Z,11
2016-11-14T17:03:00.067Z,11
2016-11-14T17:04:13.857Z,11
2016-11-14T17:05:27.809Z,11
2016-11-14T17:06:41.979Z,11
2016-11-14T17:07:56.149Z,11
2016-11-14T17:09:12.479Z,11
2016-11-14T17:10:41.236Z,11
2016-11-14T17:11:55.499Z,11
2016-11-14T17:13:10.485Z,11
2016-11-14T17:14:24.644Z,11
2016-11-14T17:15:38.564Z,11
2016-11-14T17:16:52.620Z,11
2016-11-14T17:18:06.353Z,11
2016-11-14T17:19:20.953Z,11
2016-11-14T17:20:34.924Z,11
2016-11-14T17:21:49.116Z,11
2016-11-14T17:23:03.012Z,11
2016-11-14T17:24:16.905Z,11
2016-11-14T17:25:30.733Z,10
2016-11-14T17:26:47.115Z,10
2016-11-14T17:28:01.406Z,10
2016-11-14T17:29:15.593Z,10
2016-11-14T17:30:29.161Z,10
2016-11-14T17:31:43.125Z,10
2016-11-14T17:32:58.149Z,10
2016-11-14T17:34:12.174Z,10
2016-11-14T17:35:25.975Z,10
2016-11-14T17:36:39.800Z,10
2016-11-14T17:37:53.595Z,10
2016-11-14T17:39:07.192Z,10
2016-11-14T17:40:21.234Z,10
2016-11-14T17:41:34.917Z,10
2016-11-14T17:42:48.483Z,10
2016-11-14T17:44:02.738Z,10
2016-11-14T17:45:17.646Z,10
2016-11-14T17:46:31.786Z,10
2016-11-14T17:47:45.561Z,10
2016-11-14T17:48:59.497Z,10
2016-11-14T17:50:13.638Z,10
2016-11-14T17:51:27.403Z,10
2016-11-14T17:52:41.423Z,10
2016-11-14T17:53:55.632Z,10
2016-11-14T17:55:09.366Z,10
2016-11-14T17:56:23.886Z,10
2016-11-14T17:57:37.866Z,10
2016-11-14T17:58:51.635Z,10
2016-11-14T18:00:05.575Z,10
2016-11-14T18:01:19.155Z,10
2016-11-14T18:02:33.025Z,10
2016-11-14T18:03:48.312Z,10
2016-11-14T18:05:02.398Z,10
2016-11-14T18:06:16.242Z,10
2016-11-14T18:07:30.758Z,10
2016-11-14T18:08:44.735Z,10
2016-11-14T18:09:59.468Z,10
2016-11-14T18:11:13.235Z,10
2016-11-14T18:12:27.086Z,10
2016-11-14T18:13:40.723Z,10
2016-11-14T18:14:55.110Z,10
2016-11-14T18:16:09.339Z,10
2016-11-14T18:17:23.188Z,10
2016-11-14T18:18:37.204Z,10
2016-11-14T18:19:51.079Z,10
2016-11-14T18:21:05.800Z,10
2016-11-14T18:22:20.453Z,10
2016-11-14T18:23:34.776Z,10
2016-11-14T18:24:49.067Z,10
2016-11-14T18:26:05.071Z,10
2016-11-14T18:27:19.686Z,10
2016-11-14T18:28:33.543Z,10
2016-11-14T18:35:12.706Z,10
2016-11-14T18:36:27.761Z,10
2016-11-14T18:39:27.835Z,10
2016-11-14T18:40:41.916Z,10
2016-11-14T18:41:55.880Z,10
2016-11-14T18:43:10.151Z,10
2016-11-14T18:44:23.947Z,10
2016-11-14T18:45:38.510Z,10
2016-11-14T18:46:53.535Z,10
2016-11-14T18:48:07.342Z,10